METAR Data
IDs: Format: Raw Decoded Include TAF

Data at: 1111 UTC 22 Oct 2018

METAR for:KSPB (Scappoose Ind Airpar, OR, US)
Text:KSPB 221053Z AUTO 00000KT 3/4SM BR VV006 04/04 A2997 RMK AO2 SLP149 T00390039
Temperature: 3.9°C ( 39°F)
Dewpoint: 3.9°C ( 39°F) [RH = 100%]
Pressure (altimeter):29.97 inches Hg (1015.0 mb) [Sea level pressure: 1014.9 mb]
Winds:calm
Visibility: 0.75 sm ( 1.21 km)
Ceiling:indefinite ceiling with vertical visibility of 600 feet AGL
Clouds:obscured sky
Weather:BR (mist)
QC Flag:automated observation with no human augmentation